createdAt,value
2019-02-24T00:01:27.066Z,40.33
2019-02-24T00:03:56.486Z,35.10
2019-02-24T00:06:26.362Z,41.37
2019-02-24T00:08:55.819Z,36.35
2019-02-24T00:11:24.708Z,40.73
2019-02-24T00:13:53.483Z,39.55
2019-02-24T00:16:22.303Z,37.03
2019-02-24T00:18:51.424Z,38.58
2019-02-24T00:21:20.188Z,33.55
2019-02-24T00:23:48.960Z,42.10
2019-02-24T00:26:18.055Z,39.00
2019-02-24T00:28:47.893Z,39.78
2019-02-24T00:31:17.476Z,44.53
2019-02-24T00:33:46.275Z,44.10
2019-02-24T00:36:15.424Z,39.95
2019-02-24T00:38:44.424Z,39.53
2019-02-24T00:41:13.805Z,38.95
2019-02-24T00:43:42.934Z,41.37
2019-02-24T00:46:11.754Z,39.13
2019-02-24T00:48:40.531Z,37.42
2019-02-24T00:51:09.299Z,42.25
2019-02-24T00:53:38.106Z,43.58
2019-02-24T00:56:06.873Z,45.78
2019-02-24T00:58:35.633Z,44.35
2019-02-24T01:01:04.992Z,41.00
2019-02-24T01:03:34.464Z,40.50
2019-02-24T01:06:04.143Z,44.03
2019-02-24T01:08:33.654Z,43.33
2019-02-24T01:11:02.455Z,42.55
2019-02-24T01:13:31.218Z,43.45
2019-02-24T01:16:00.418Z,50.00
2019-02-24T01:18:29.182Z,44.38
2019-02-24T01:20:58.355Z,46.02
2019-02-24T01:23:27.461Z,44.95
2019-02-24T01:25:56.609Z,39.90
2019-02-24T01:28:25.785Z,47.80
2019-02-24T01:30:54.537Z,52.75
2019-02-24T01:33:23.751Z,42.70
2019-02-24T01:35:53.527Z,40.38
2019-02-24T01:38:22.320Z,43.92
2019-02-24T01:40:51.412Z,39.88
2019-02-24T01:43:20.172Z,63.23
2019-02-24T01:45:48.967Z,64.40
2019-02-24T01:48:17.743Z,55.43
2019-02-24T01:50:46.906Z,39.83
2019-02-24T01:53:15.693Z,43.55
2019-02-24T01:55:44.848Z,39.58
2019-02-24T01:58:13.684Z,38.50
2019-02-24T02:00:43.142Z,43.92
2019-02-24T02:03:11.905Z,40.58
2019-02-24T02:05:40.675Z,45.88
2019-02-24T02:08:09.762Z,40.17
2019-02-24T02:10:38.530Z,39.25
2019-02-24T02:13:07.347Z,39.80
2019-02-24T02:15:36.353Z,39.90
2019-02-24T02:18:05.229Z,45.65
2019-02-24T02:20:34.063Z,40.45
2019-02-24T02:23:02.853Z,37.53
2019-02-24T02:25:31.694Z,37.73
2019-02-24T02:28:00.825Z,31.37
2019-02-24T02:30:29.614Z,42.05
2019-02-24T02:32:58.374Z,47.20
2019-02-24T02:35:27.176Z,41.20
2019-02-24T02:37:55.976Z,40.63
2019-02-24T02:40:24.751Z,38.65
2019-02-24T02:42:53.517Z,36.50
2019-02-24T02:45:22.408Z,41.90
2019-02-24T02:47:51.203Z,38.02
2019-02-24T02:50:20.460Z,34.58
2019-02-24T02:52:49.334Z,31.97
2019-02-24T02:55:18.218Z,33.98
2019-02-24T02:57:47.287Z,33.63
2019-02-24T03:00:31.855Z,41.63
2019-02-24T03:03:00.686Z,41.33
2019-02-24T03:05:29.710Z,41.70
2019-02-24T03:08:03.261Z,44.70
2019-02-24T03:10:32.506Z,41.40
2019-02-24T03:13:02.097Z,40.33
2019-02-24T03:15:31.322Z,43.68
2019-02-24T03:18:00.122Z,41.45
2019-02-24T03:20:28.889Z,47.75
2019-02-24T03:22:57.661Z,47.67
2019-02-24T03:25:27.479Z,46.35
2019-02-24T03:27:56.687Z,46.20
2019-02-24T03:30:25.557Z,48.20
2019-02-24T03:32:55.025Z,42.43
2019-02-24T03:35:24.298Z,50.43
2019-02-24T03:37:53.438Z,38.48
2019-02-24T03:40:22.858Z,37.17
2019-02-24T03:42:51.955Z,39.20
2019-02-24T03:45:20.815Z,40.38
2019-02-24T03:47:49.718Z,44.95
2019-02-24T03:50:18.789Z,41.60
2019-02-24T03:52:47.744Z,40.95
2019-02-24T03:55:16.582Z,40.30
2019-02-24T03:57:45.496Z,42.45
2019-02-24T04:00:14.362Z,35.75
2019-02-24T04:02:43.667Z,36.28
2019-02-24T04:05:13.600Z,31.37
2019-02-24T04:07:42.694Z,32.17
2019-02-24T04:10:11.519Z,34.43
2019-02-24T04:12:40.388Z,33.98
2019-02-24T04:15:09.554Z,27.67
2019-02-24T04:17:38.333Z,31.05
2019-02-24T04:20:07.229Z,37.83
2019-02-24T04:22:36.001Z,38.70
2019-02-24T04:25:04.925Z,40.40
2019-02-24T04:27:33.738Z,40.00
2019-02-24T04:30:02.530Z,46.15
2019-02-24T04:32:31.361Z,48.30
2019-02-24T04:35:00.311Z,41.28
2019-02-24T04:37:29.109Z,44.27
2019-02-24T04:39:58.269Z,44.50
2019-02-24T04:42:27.037Z,47.13
2019-02-24T04:44:55.840Z,44.30
2019-02-24T04:47:24.605Z,47.48
2019-02-24T04:49:53.728Z,47.40
2019-02-24T04:52:22.867Z,55.92
2019-02-24T04:54:52.105Z,49.67
2019-02-24T04:57:21.204Z,49.45
2019-02-24T04:59:50.322Z,56.13
2019-02-24T05:02:19.874Z,54.65
2019-02-24T05:04:49.743Z,59.20
2019-02-24T05:07:19.333Z,46.90
2019-02-24T05:09:49.211Z,42.00
2019-02-24T05:12:18.285Z,53.68
2019-02-24T05:14:47.127Z,45.20
2019-02-24T05:17:15.861Z,46.68
2019-02-24T05:19:44.636Z,42.48
2019-02-24T05:22:13.430Z,49.83
2019-02-24T05:24:42.588Z,44.00
2019-02-24T05:27:11.395Z,46.33
2019-02-24T05:29:46.022Z,42.80
2019-02-24T05:32:11.590Z,40.48
2019-02-24T05:34:41.467Z,42.43
2019-02-24T05:37:10.946Z,39.27
2019-02-24T05:39:39.746Z,39.80
2019-02-24T05:42:08.602Z,40.50
2019-02-24T05:44:37.742Z,49.45
2019-02-24T05:47:06.620Z,40.67
2019-02-24T05:49:36.430Z,41.18
2019-02-24T05:52:05.590Z,41.10
2019-02-24T05:54:35.386Z,43.05
2019-02-24T05:57:05.382Z,48.40
2019-02-24T05:59:34.263Z,42.60
2019-02-24T06:02:03.073Z,36.90
2019-02-24T06:04:31.849Z,38.95
2019-02-24T06:07:00.627Z,35.58
2019-02-24T06:09:29.450Z,39.67
2019-02-24T06:11:58.998Z,36.93
2019-02-24T06:14:27.764Z,46.88
2019-02-24T06:16:56.571Z,42.90
2019-02-24T06:19:25.647Z,35.38
2019-02-24T06:21:55.225Z,38.58
2019-02-24T06:24:24.362Z,35.58
2019-02-24T06:26:53.140Z,45.33
2019-02-24T06:29:22.918Z,44.03
2019-02-24T06:31:53.157Z,36.65
2019-02-24T06:34:22.630Z,39.20
2019-02-24T06:36:51.461Z,38.15
2019-02-24T06:39:20.316Z,36.17
2019-02-24T06:41:49.095Z,40.80
2019-02-24T06:44:18.254Z,36.93
2019-02-24T06:46:47.056Z,40.55
2019-02-24T06:49:15.856Z,42.65
2019-02-24T06:51:45.027Z,43.80
2019-02-24T06:54:14.789Z,35.75
2019-02-24T06:56:43.578Z,45.35
2019-02-24T06:59:15.669Z,36.35
2019-02-24T07:01:50.687Z,39.63
2019-02-24T07:04:19.463Z,41.80
2019-02-24T07:06:48.672Z,41.13
2019-02-24T07:10:04.555Z,40.60
2019-02-24T07:12:47.259Z,37.42
2019-02-24T07:15:16.483Z,33.23
2019-02-24T07:17:45.721Z,35.60
2019-02-24T07:20:14.870Z,36.15
2019-02-24T07:22:44.002Z,34.38
2019-02-24T07:25:13.606Z,32.35
2019-02-24T07:27:43.536Z,34.50
2019-02-24T07:30:23.182Z,30.30
2019-02-24T07:32:46.481Z,32.42
2019-02-24T07:35:15.301Z,29.32
2019-02-24T07:37:48.074Z,32.83
2019-02-24T07:40:17.503Z,38.45
2019-02-24T07:42:46.322Z,29.77
2019-02-24T07:45:15.506Z,32.30
2019-02-24T07:47:44.268Z,34.70
2019-02-24T07:50:14.531Z,30.32
2019-02-24T07:52:43.593Z,27.80
2019-02-24T07:55:13.461Z,29.87
2019-02-24T07:57:42.938Z,33.18
2019-02-24T08:00:12.227Z,26.85
2019-02-24T08:02:40.989Z,31.02
2019-02-24T08:05:09.879Z,28.50
2019-02-24T08:07:39.029Z,28.92
2019-02-24T08:10:07.973Z,30.23
2019-02-24T08:12:36.790Z,26.87
2019-02-24T08:15:09.858Z,30.23
2019-02-24T08:17:38.810Z,27.30
2019-02-24T08:20:09.074Z,23.95
2019-02-24T08:22:41.032Z,22.77
2019-02-24T08:25:11.828Z,24.45
2019-02-24T08:27:43.749Z,20.52
2019-02-24T08:30:19.534Z,23.40
2019-02-24T08:32:49.710Z,22.80
2019-02-24T08:35:18.911Z,23.38
2019-02-24T08:37:48.072Z,22.45
2019-02-24T08:40:17.797Z,16.00
2019-02-24T08:42:47.401Z,19.48
2019-02-24T08:45:16.739Z,19.07
2019-02-24T08:47:46.252Z,15.10
2019-02-24T08:50:15.750Z,21.40
2019-02-24T08:52:45.299Z,16.27
2019-02-24T08:55:14.866Z,17.73
2019-02-24T08:57:44.351Z,14.47
2019-02-24T09:00:13.588Z,16.40
2019-02-24T09:02:42.388Z,19.45
2019-02-24T09:05:11.490Z,18.45
2019-02-24T09:07:40.660Z,18.10
2019-02-24T09:10:09.616Z,19.17
2019-02-24T09:12:38.720Z,15.30
2019-02-24T09:15:08.847Z,16.12
2019-02-24T09:17:37.965Z,16.25
2019-02-24T09:20:07.763Z,15.65
2019-02-24T09:22:36.552Z,22.27
2019-02-24T09:25:05.578Z,15.43
2019-02-24T09:27:34.421Z,16.67
2019-02-24T09:30:03.738Z,16.75
2019-02-24T09:32:32.574Z,14.43
2019-02-24T09:35:01.351Z,15.83
2019-02-24T09:37:30.121Z,17.37
2019-02-24T09:39:59.407Z,16.87
2019-02-24T09:42:28.592Z,16.95
2019-02-24T09:44:57.386Z,19.90
2019-02-24T09:47:26.142Z,14.90
2019-02-24T09:49:55.295Z,20.65
2019-02-24T09:52:24.112Z,16.37
2019-02-24T09:54:52.868Z,12.55
2019-02-24T09:57:21.648Z,17.35
2019-02-24T09:59:51.546Z,16.42
2019-02-24T10:02:38.767Z,13.98
2019-02-24T10:05:07.737Z,13.72
2019-02-24T10:07:36.880Z,16.12
2019-02-24T10:10:08.976Z,13.72
2019-02-24T10:12:37.927Z,13.65
2019-02-24T10:15:07.111Z,14.53
2019-02-24T10:17:35.991Z,14.03
2019-02-24T10:20:05.013Z,13.60
2019-02-24T10:22:33.840Z,14.65
2019-02-24T10:25:02.744Z,12.93
2019-02-24T10:27:31.591Z,15.43
2019-02-24T10:30:00.377Z,13.50
2019-02-24T10:32:29.605Z,12.55
2019-02-24T10:34:58.483Z,17.32
2019-02-24T10:37:27.287Z,16.90
2019-02-24T10:39:56.171Z,12.70
2019-02-24T10:42:24.948Z,12.23
2019-02-24T10:44:53.714Z,13.98
2019-02-24T10:47:22.528Z,12.18
2019-02-24T10:49:51.313Z,10.00
2019-02-24T10:52:20.101Z,10.78
2019-02-24T10:54:48.979Z,11.00
2019-02-24T10:57:17.744Z,10.82
2019-02-24T10:59:46.517Z,11.00
2019-02-24T11:02:15.312Z,9.20
2019-02-24T11:04:44.186Z,9.20
2019-02-24T11:07:12.955Z,9.98
2019-02-24T11:09:41.719Z,9.18
2019-02-24T11:12:10.522Z,10.53
2019-02-24T11:14:39.286Z,8.75
2019-02-24T11:17:08.401Z,9.78
2019-02-24T11:19:37.236Z,9.15
2019-02-24T11:22:06.177Z,8.65
2019-02-24T11:24:35.015Z,9.50
2019-02-24T11:27:03.808Z,8.58
2019-02-24T11:29:33.437Z,9.13
2019-02-24T11:32:02.331Z,9.55
2019-02-24T11:34:31.125Z,8.68
2019-02-24T11:36:59.937Z,8.13
2019-02-24T11:39:28.785Z,8.93
2019-02-24T11:41:57.943Z,8.13
2019-02-24T11:44:28.490Z,9.25
2019-02-24T11:46:57.426Z,7.70
2019-02-24T11:49:26.789Z,8.00
2019-02-24T11:52:03.680Z,7.83
2019-02-24T11:54:27.435Z,6.87
2019-02-24T11:56:56.385Z,6.62
2019-02-24T11:59:25.833Z,7.42
2019-02-24T12:01:58.102Z,7.17
2019-02-24T12:04:29.482Z,7.10
2019-02-24T12:06:58.357Z,6.90
2019-02-24T12:09:27.519Z,7.05
2019-02-24T12:12:11.630Z,6.92
2019-02-24T12:14:41.615Z,7.40
2019-02-24T12:17:10.381Z,6.50
2019-02-24T12:19:39.248Z,7.05
2019-02-24T12:22:08.461Z,6.15
2019-02-24T12:24:37.765Z,6.97
2019-02-24T12:27:06.634Z,6.80
2019-02-24T12:29:35.395Z,6.90
2019-02-24T12:32:06.156Z,6.85
2019-02-24T12:34:35.167Z,7.47
2019-02-24T12:37:03.956Z,7.42
2019-02-24T12:39:33.162Z,7.22
2019-02-24T12:42:01.973Z,6.95
2019-02-24T12:44:30.744Z,9.20
2019-02-24T12:47:00.506Z,7.20
2019-02-24T12:49:29.928Z,6.47
2019-02-24T12:51:59.472Z,6.65
2019-02-24T12:54:29.016Z,7.05
2019-02-24T12:56:57.805Z,7.45
2019-02-24T12:59:26.642Z,7.28
2019-02-24T13:01:55.577Z,7.22
2019-02-24T13:04:24.868Z,6.45
2019-02-24T13:06:57.559Z,6.40
2019-02-24T13:09:29.151Z,6.62
2019-02-24T13:11:58.173Z,6.35
2019-02-24T13:14:27.082Z,6.67
2019-02-24T13:16:56.111Z,6.75
2019-02-24T13:19:24.968Z,6.83
2019-02-24T13:21:54.186Z,6.40
2019-02-24T13:24:23.257Z,7.62
2019-02-24T13:26:52.089Z,6.15
2019-02-24T13:29:21.047Z,7.03
2019-02-24T13:31:50.032Z,6.35
2019-02-24T13:34:18.955Z,6.05
2019-02-24T13:36:47.883Z,5.78
2019-02-24T13:39:17.049Z,6.87
2019-02-24T13:41:45.836Z,6.40
2019-02-24T13:44:14.630Z,5.30
2019-02-24T13:46:43.788Z,4.78
2019-02-24T13:49:12.937Z,7.00
2019-02-24T13:51:41.728Z,6.03
2019-02-24T13:54:10.489Z,6.35
2019-02-24T13:56:39.285Z,5.10
2019-02-24T13:59:08.043Z,5.25
2019-02-24T14:01:36.798Z,5.53
2019-02-24T14:04:05.599Z,4.95
2019-02-24T14:06:34.355Z,4.90
2019-02-24T14:09:03.135Z,4.45
2019-02-24T14:11:31.928Z,5.70
2019-02-24T14:14:00.692Z,4.08
2019-02-24T14:16:29.445Z,4.15
2019-02-24T14:18:58.247Z,4.17
2019-02-24T14:21:27.766Z,4.15
2019-02-24T14:23:56.917Z,5.87
2019-02-24T14:26:25.867Z,6.17
2019-02-24T14:28:54.630Z,4.90
2019-02-24T14:31:23.383Z,3.37
2019-02-24T14:33:52.706Z,4.42
2019-02-24T14:36:21.569Z,3.65
2019-02-24T14:38:50.540Z,3.00
2019-02-24T14:41:21.955Z,3.72
2019-02-24T14:43:51.506Z,5.17
2019-02-24T14:46:20.381Z,4.50
2019-02-24T14:48:49.192Z,4.37
2019-02-24T14:51:18.302Z,5.22
2019-02-24T14:53:47.064Z,4.37
2019-02-24T14:56:15.866Z,3.08
2019-02-24T14:58:44.639Z,3.22
2019-02-24T15:01:13.406Z,4.15
2019-02-24T15:03:42.251Z,3.15
2019-02-24T15:06:11.011Z,2.95
2019-02-24T15:08:39.778Z,3.45
2019-02-24T15:11:08.591Z,3.83
2019-02-24T15:13:37.360Z,3.55
2019-02-24T15:16:06.228Z,4.30
2019-02-24T15:18:34.987Z,3.90
2019-02-24T15:21:03.893Z,5.75
2019-02-24T15:23:32.779Z,4.05
2019-02-24T15:26:02.606Z,3.67
2019-02-24T15:28:31.775Z,6.72
2019-02-24T15:31:00.628Z,3.72
2019-02-24T15:33:29.844Z,6.15
2019-02-24T15:35:59.657Z,4.78
2019-02-24T15:38:29.148Z,5.60
2019-02-24T15:40:58.708Z,5.90
2019-02-24T15:43:27.714Z,5.30
2019-02-24T15:45:56.495Z,5.90
2019-02-24T15:48:25.267Z,6.62
2019-02-24T15:50:54.059Z,9.83
2019-02-24T15:53:22.908Z,7.03
2019-02-24T15:55:52.115Z,7.37
2019-02-24T15:58:20.904Z,7.33
2019-02-24T16:00:49.675Z,7.55
2019-02-24T16:03:18.527Z,7.40
2019-02-24T16:05:47.342Z,8.85
2019-02-24T16:08:16.111Z,11.48
2019-02-24T16:10:44.950Z,10.38
2019-02-24T16:13:16.984Z,9.18
2019-02-24T16:15:44.316Z,8.73
2019-02-24T16:18:13.091Z,14.23
2019-02-24T16:20:42.241Z,13.48
2019-02-24T16:23:10.999Z,10.35
2019-02-24T16:25:39.861Z,12.03
2019-02-24T16:28:08.665Z,8.13
2019-02-24T16:30:37.573Z,10.48
2019-02-24T16:33:10.619Z,9.43
2019-02-24T16:35:37.281Z,10.40
2019-02-24T16:38:06.173Z,8.90
2019-02-24T16:40:35.016Z,7.20
2019-02-24T16:43:03.866Z,8.80
2019-02-24T16:45:32.745Z,8.73
2019-02-24T16:48:01.537Z,8.60
2019-02-24T16:50:30.382Z,7.80
2019-02-24T16:52:59.182Z,8.13
2019-02-24T16:55:27.975Z,7.22
2019-02-24T16:57:56.771Z,9.13
2019-02-24T17:00:25.700Z,8.35
2019-02-24T17:02:54.571Z,7.50
2019-02-24T17:05:23.398Z,7.70
2019-02-24T17:07:52.309Z,6.80
2019-02-24T17:10:21.264Z,6.20
2019-02-24T17:12:50.084Z,6.15
2019-02-24T17:15:19.011Z,5.90
2019-02-24T17:17:47.836Z,5.47
2019-02-24T17:20:20.539Z,7.10
2019-02-24T17:22:49.310Z,6.67
2019-02-24T17:25:18.232Z,9.10
2019-02-24T17:27:47.020Z,7.70
2019-02-24T17:30:16.314Z,12.50
2019-02-24T17:32:45.722Z,7.70
2019-02-24T17:35:14.805Z,10.93
2019-02-24T17:37:44.058Z,9.03
2019-02-24T17:40:13.828Z,7.72
2019-02-24T17:42:42.746Z,8.10
2019-02-24T17:45:12.882Z,11.05
2019-02-24T17:47:42.893Z,8.03
2019-02-24T17:50:12.969Z,8.43
2019-02-24T17:52:42.785Z,11.50
2019-02-24T17:55:13.536Z,10.80
2019-02-24T17:57:42.883Z,13.83
2019-02-24T18:00:20.463Z,11.15
2019-02-24T18:02:49.241Z,10.80
2019-02-24T18:05:18.507Z,7.55
2019-02-24T18:07:47.348Z,9.88
2019-02-24T18:10:16.729Z,8.55
2019-02-24T18:12:46.565Z,9.00
2019-02-24T18:15:16.060Z,10.78
2019-02-24T18:17:45.656Z,14.93
2019-02-24T18:20:15.691Z,11.80
2019-02-24T18:22:45.577Z,11.60
2019-02-24T18:25:15.254Z,10.95
2019-02-24T18:27:44.516Z,14.15
2019-02-24T18:30:17.027Z,7.80
2019-02-24T18:32:45.891Z,8.63
2019-02-24T18:35:15.701Z,9.45
2019-02-24T18:37:45.317Z,11.78
2019-02-24T18:40:14.209Z,10.20
2019-02-24T18:42:43.424Z,10.38
2019-02-24T18:45:13.019Z,11.90
2019-02-24T18:47:42.290Z,9.85
2019-02-24T18:50:11.659Z,9.33
2019-02-24T18:52:40.893Z,11.25
2019-02-24T18:55:10.049Z,9.95
2019-02-24T18:57:39.308Z,8.93
2019-02-24T19:00:11.515Z,10.78
2019-02-24T19:02:40.722Z,12.88
2019-02-24T19:05:10.478Z,9.63
2019-02-24T19:07:39.899Z,15.48
2019-02-24T19:10:11.052Z,15.15
2019-02-24T19:12:39.882Z,12.10
2019-02-24T19:15:11.460Z,11.22
2019-02-24T19:17:40.738Z,10.82
2019-02-24T19:20:10.778Z,13.70
2019-02-24T19:22:40.683Z,10.55
2019-02-24T19:25:11.006Z,9.00
2019-02-24T19:27:40.466Z,12.18
2019-02-24T19:30:11.739Z,9.98
2019-02-24T19:32:41.410Z,12.75
2019-02-24T19:35:12.018Z,9.80
2019-02-24T19:37:40.906Z,8.15
2019-02-24T19:40:11.553Z,11.50
2019-02-24T19:42:40.463Z,14.18
2019-02-24T19:45:12.869Z,11.88
2019-02-24T19:47:41.709Z,15.10
2019-02-24T19:50:12.645Z,25.80
2019-02-24T19:53:12.509Z,28.92
2019-02-24T19:55:41.359Z,15.35
2019-02-24T19:58:10.572Z,16.70
2019-02-24T20:00:39.515Z,18.73
2019-02-24T20:03:08.649Z,14.35
2019-02-24T20:05:37.491Z,16.65
2019-02-24T20:08:06.452Z,13.70
2019-02-24T20:10:35.221Z,18.37
2019-02-24T20:13:04.166Z,14.20
2019-02-24T20:15:32.930Z,10.82
2019-02-24T20:18:01.824Z,10.75
2019-02-24T20:20:30.676Z,14.98
2019-02-24T20:22:59.466Z,13.65
2019-02-24T20:25:28.275Z,9.98
2019-02-24T20:27:57.124Z,15.58
2019-02-24T20:30:27.095Z,9.80
2019-02-24T20:32:56.282Z,14.43
2019-02-24T20:35:25.399Z,14.68
2019-02-24T20:37:54.344Z,12.95
2019-02-24T20:40:23.286Z,16.95
2019-02-24T20:42:52.050Z,14.18
2019-02-24T20:45:20.860Z,10.58
2019-02-24T20:47:49.875Z,12.00
2019-02-24T20:50:19.844Z,16.12
2019-02-24T20:52:49.699Z,17.00
2019-02-24T20:55:19.008Z,20.82
2019-02-24T20:57:48.308Z,17.17
2019-02-24T21:00:24.138Z,21.07
2019-02-24T21:02:53.529Z,18.75
2019-02-24T21:05:22.370Z,17.07
2019-02-24T21:07:51.858Z,19.75
2019-02-24T21:10:21.063Z,16.35
2019-02-24T21:12:50.249Z,13.10
2019-02-24T21:15:19.670Z,17.37
2019-02-24T21:17:48.455Z,16.15
2019-02-24T21:20:20.084Z,16.37
2019-02-24T21:22:50.621Z,14.23
2019-02-24T21:25:19.639Z,13.98
2019-02-24T21:27:49.250Z,13.03
2019-02-24T21:30:18.360Z,11.48
2019-02-24T21:32:47.883Z,17.02
2019-02-24T21:35:17.542Z,13.62
2019-02-24T21:37:46.898Z,15.90
2019-02-24T21:40:16.651Z,15.32
2019-02-24T21:42:45.972Z,14.50
2019-02-24T21:45:17.355Z,12.78
2019-02-24T21:47:46.580Z,12.82
2019-02-24T21:50:16.695Z,13.80
2019-02-24T21:52:45.930Z,13.75
2019-02-24T21:55:15.270Z,14.25
2019-02-24T21:57:44.952Z,14.07
2019-02-24T22:00:18.225Z,13.72
2019-02-24T22:02:47.081Z,14.80
2019-02-24T22:05:15.901Z,17.15
2019-02-24T22:07:45.011Z,12.60
2019-02-24T22:10:14.292Z,14.63
2019-02-24T22:12:43.097Z,13.13
2019-02-24T22:15:14.836Z,13.08
2019-02-24T22:17:44.037Z,13.65
2019-02-24T22:20:14.815Z,9.28
2019-02-24T22:22:43.926Z,11.50
2019-02-24T22:25:13.272Z,10.30
2019-02-24T22:27:42.138Z,15.98
2019-02-24T22:30:13.386Z,15.23
2019-02-24T22:32:42.642Z,16.77
2019-02-24T22:35:11.501Z,18.55
2019-02-24T22:37:41.303Z,13.43
2019-02-24T22:40:11.787Z,15.03
2019-02-24T22:42:40.738Z,17.67
2019-02-24T22:45:11.882Z,17.12
2019-02-24T22:47:40.702Z,14.78
2019-02-24T22:50:09.964Z,14.38
2019-02-24T22:52:38.879Z,16.10
2019-02-24T22:55:08.010Z,17.05
2019-02-24T22:57:36.916Z,14.20
2019-02-24T23:00:15.925Z,15.13
2019-02-24T23:02:44.852Z,13.32
2019-02-24T23:05:13.692Z,15.50
2019-02-24T23:07:42.643Z,14.87
2019-02-24T23:10:12.130Z,15.08
2019-02-24T23:12:40.972Z,18.25
2019-02-24T23:15:09.937Z,17.40
2019-02-24T23:17:38.700Z,15.25
2019-02-24T23:20:07.726Z,12.35
2019-02-24T23:22:36.570Z,12.40
2019-02-24T23:25:05.945Z,12.23
2019-02-24T23:27:34.725Z,11.43
2019-02-24T23:30:04.750Z,14.30
2019-02-24T23:32:33.567Z,14.25
2019-02-24T23:35:02.340Z,14.28
2019-02-24T23:37:31.113Z,14.15
2019-02-24T23:39:59.945Z,13.60
2019-02-24T23:42:28.814Z,13.72
2019-02-24T23:44:57.625Z,15.55
2019-02-24T23:47:26.393Z,13.93
2019-02-24T23:49:55.149Z,14.30
2019-02-24T23:52:23.965Z,11.63
2019-02-24T23:54:52.735Z,12.82
2019-02-24T23:57:21.529Z,16.45
2019-02-24T23:59:50.327Z,12.10
